createdAt,value
2023-02-21T00:00:20.677Z,33.30
2023-02-21T00:01:20.672Z,32.80
2023-02-21T00:02:20.701Z,31.40
2023-02-21T00:03:20.639Z,36.00
2023-02-21T00:04:20.643Z,38.00
2023-02-21T00:05:20.702Z,34.40
2023-02-21T00:06:20.665Z,34.50
2023-02-21T00:07:20.603Z,36.70
2023-02-21T00:08:20.595Z,34.50
2023-02-21T00:09:20.601Z,32.80
2023-02-21T00:10:20.598Z,33.00
2023-02-21T00:11:22.288Z,31.90
2023-02-21T00:12:20.594Z,32.10
2023-02-21T00:13:20.558Z,32.70
2023-02-21T00:14:20.556Z,32.20
2023-02-21T00:15:20.518Z,32.50
2023-02-21T00:19:14.439Z,31.30
2023-02-21T00:19:43.200Z,33.80
2023-02-21T00:20:43.182Z,35.00
2023-02-21T00:21:43.173Z,34.30
2023-02-21T00:22:43.163Z,30.40
2023-02-21T00:23:43.138Z,33.40
2023-02-21T00:24:43.145Z,34.60
2023-02-21T00:25:43.118Z,32.80
2023-02-21T00:26:43.123Z,33.70
2023-02-21T00:27:43.114Z,33.30
2023-02-21T00:28:43.099Z,31.70
2023-02-21T00:29:43.092Z,38.00
2023-02-21T00:30:43.189Z,35.80
2023-02-21T00:31:43.061Z,30.70
2023-02-21T00:32:43.169Z,32.40
2023-02-21T00:33:43.039Z,35.00
2023-02-21T00:34:43.060Z,35.20
2023-02-21T00:35:43.015Z,37.20
2023-02-21T00:36:43.025Z,35.50
2023-02-21T00:37:42.996Z,31.70
2023-02-21T00:38:42.985Z,34.30
2023-02-21T00:39:42.982Z,33.80
2023-02-21T00:40:42.978Z,32.70
2023-02-21T00:41:42.946Z,34.70
2023-02-21T00:42:42.936Z,37.20
2023-02-21T00:43:42.922Z,36.60
2023-02-21T00:44:42.943Z,35.00
2023-02-21T00:45:42.969Z,35.80
2023-02-21T00:46:42.892Z,37.10
2023-02-21T00:47:42.880Z,33.30
2023-02-21T00:48:42.881Z,37.50
2023-02-21T00:49:42.865Z,37.30
2023-02-21T00:50:42.850Z,33.30
2023-02-21T00:51:42.835Z,37.80
2023-02-21T00:52:42.830Z,33.20
2023-02-21T00:53:42.821Z,33.20
2023-02-21T00:54:42.817Z,37.00
2023-02-21T00:55:42.792Z,35.00
2023-02-21T00:56:42.793Z,37.70
2023-02-21T00:57:42.772Z,35.20
2023-02-21T00:58:42.769Z,36.00
2023-02-21T00:59:42.766Z,33.60
2023-02-21T01:00:42.748Z,36.30
2023-02-21T01:01:42.809Z,31.80
2023-02-21T01:02:42.727Z,36.80
2023-02-21T01:03:42.718Z,35.30
2023-02-21T01:04:42.710Z,34.20
2023-02-21T01:05:42.687Z,30.80
2023-02-21T01:06:42.678Z,33.70
2023-02-21T01:07:42.665Z,36.20
2023-02-21T01:08:42.662Z,33.80
2023-02-21T01:09:42.657Z,33.10
2023-02-21T01:10:42.639Z,37.40
2023-02-21T01:11:42.625Z,39.00
2023-02-21T01:12:42.620Z,36.20
2023-02-21T01:13:42.618Z,34.20
2023-02-21T01:14:42.613Z,39.70
2023-02-21T01:15:42.648Z,39.60
2023-02-21T01:16:42.577Z,38.40
2023-02-21T01:17:42.558Z,38.10
2023-02-21T01:18:42.560Z,35.10
2023-02-21T01:19:42.553Z,35.50
2023-02-21T01:20:42.534Z,35.50
2023-02-21T01:21:42.529Z,37.10
2023-02-21T01:22:42.510Z,36.00
2023-02-21T01:23:42.499Z,37.50
2023-02-21T01:24:42.507Z,37.50
2023-02-21T01:25:42.479Z,41.60
2023-02-21T01:26:42.494Z,36.10
2023-02-21T01:27:42.461Z,36.20
2023-02-21T01:28:42.459Z,36.30
2023-02-21T01:29:42.456Z,36.90
2023-02-21T01:30:42.545Z,36.30
2023-02-21T01:31:42.411Z,39.20
2023-02-21T01:32:42.408Z,36.20
2023-02-21T01:33:42.405Z,34.70
2023-02-21T01:34:42.398Z,39.30
2023-02-21T01:35:42.385Z,39.80
2023-02-21T01:36:42.383Z,35.90
2023-02-21T01:37:42.356Z,39.60
2023-02-21T01:38:42.338Z,39.00
2023-02-21T01:39:42.348Z,39.00
2023-02-21T01:40:42.317Z,40.70
2023-02-21T01:41:42.307Z,38.50
2023-02-21T01:42:42.307Z,39.00
2023-02-21T01:43:42.287Z,37.40
2023-02-21T01:44:42.286Z,37.90
2023-02-21T01:45:42.271Z,38.30
2023-02-21T01:46:42.257Z,39.90
2023-02-21T01:47:42.240Z,38.50
2023-02-21T01:48:42.234Z,37.10
2023-02-21T01:49:42.229Z,37.10
2023-02-21T01:50:42.223Z,35.40
2023-02-21T01:51:42.193Z,37.60
2023-02-21T01:52:42.200Z,38.90
2023-02-21T01:53:42.176Z,37.90
2023-02-21T01:54:42.179Z,40.50
2023-02-21T01:55:42.161Z,38.50
2023-02-21T01:56:42.140Z,36.90
2023-02-21T01:57:42.148Z,39.50
2023-02-21T01:58:42.127Z,38.80
2023-02-21T01:59:42.126Z,42.30
2023-02-21T02:00:42.108Z,38.30
2023-02-21T02:01:42.150Z,37.70
2023-02-21T02:02:42.076Z,38.10
2023-02-21T02:03:42.084Z,46.70
2023-02-21T02:04:42.151Z,42.50
2023-02-21T02:05:42.051Z,43.10
2023-02-21T02:06:42.035Z,39.50
2023-02-21T02:07:42.041Z,38.20
2023-02-21T02:08:42.017Z,43.50
2023-02-21T02:09:42.019Z,38.70
2023-02-21T02:10:41.998Z,40.30
2023-02-21T02:11:42.005Z,36.60
2023-02-21T02:12:41.974Z,39.70
2023-02-21T02:13:41.972Z,39.60
2023-02-21T02:14:41.959Z,38.60
2023-02-21T02:15:41.949Z,40.30
2023-02-21T02:16:41.927Z,41.20
2023-02-21T02:17:41.978Z,43.90
2023-02-21T02:18:41.907Z,42.40
2023-02-21T02:19:41.982Z,41.30
2023-02-21T02:20:41.889Z,41.50
2023-02-21T02:21:41.877Z,40.30
2023-02-21T02:22:41.864Z,43.30
2023-02-21T02:23:41.853Z,42.20
2023-02-21T02:24:41.875Z,41.90
2023-02-21T02:25:41.836Z,41.20
2023-02-21T02:26:41.822Z,38.80
2023-02-21T02:27:41.834Z,44.00
2023-02-21T02:28:41.797Z,41.30
2023-02-21T02:29:41.802Z,43.70
2023-02-21T02:30:41.894Z,43.10
2023-02-21T02:31:41.878Z,47.80
2023-02-21T02:32:41.755Z,47.40
2023-02-21T02:33:41.756Z,41.20
2023-02-21T02:34:41.743Z,46.00
2023-02-21T02:35:41.724Z,42.40
2023-02-21T02:36:41.708Z,42.20
2023-02-21T02:37:41.811Z,41.40
2023-02-21T02:38:41.688Z,44.80
2023-02-21T02:39:41.692Z,43.20
2023-02-21T02:40:41.666Z,41.40
2023-02-21T02:41:41.660Z,41.20
2023-02-21T02:42:41.660Z,45.50
2023-02-21T02:43:41.643Z,45.90
2023-02-21T02:44:41.651Z,42.70
2023-02-21T02:45:41.617Z,40.80
2023-02-21T02:46:41.697Z,41.70
2023-02-21T02:47:41.599Z,41.10
2023-02-21T02:48:41.585Z,40.20
2023-02-21T02:49:41.580Z,40.90
2023-02-21T02:50:41.553Z,45.10
2023-02-21T02:51:41.576Z,44.60
2023-02-21T02:52:41.541Z,41.80
2023-02-21T02:53:41.530Z,42.20
2023-02-21T02:54:41.532Z,40.30
2023-02-21T02:55:41.507Z,40.70
2023-02-21T02:56:41.489Z,45.50
2023-02-21T02:57:41.488Z,41.10
2023-02-21T02:58:41.478Z,42.10
2023-02-21T02:59:41.483Z,46.40
2023-02-21T03:00:41.447Z,42.30
2023-02-21T03:01:41.541Z,41.70
2023-02-21T03:02:41.427Z,46.00
2023-02-21T03:03:41.451Z,43.80
2023-02-21T03:04:41.419Z,43.10
2023-02-21T03:05:41.398Z,42.20
2023-02-21T03:06:41.388Z,39.00
2023-02-21T03:07:41.386Z,39.50
2023-02-21T03:08:41.363Z,40.70
2023-02-21T03:09:41.383Z,38.50
2023-02-21T03:10:41.342Z,41.70
2023-02-21T03:11:41.334Z,41.10
2023-02-21T03:12:41.318Z,40.00
2023-02-21T03:13:41.319Z,38.90
2023-02-21T03:14:41.306Z,41.10
2023-02-21T03:15:41.298Z,38.00
2023-02-21T03:16:41.270Z,42.70
2023-02-21T03:17:41.271Z,41.00
2023-02-21T03:18:41.252Z,44.70
2023-02-21T03:19:41.260Z,41.60
2023-02-21T03:20:41.232Z,44.20
2023-02-21T03:21:41.224Z,40.10
2023-02-21T03:22:41.214Z,43.20
2023-02-21T03:23:41.204Z,40.80
2023-02-21T03:24:41.210Z,40.20
2023-02-21T03:25:41.181Z,42.30
2023-02-21T03:26:41.189Z,40.30
2023-02-21T03:27:41.162Z,39.60
2023-02-21T03:28:41.149Z,40.90
2023-02-21T03:29:41.161Z,42.20
2023-02-21T03:30:41.124Z,38.70
2023-02-21T03:31:41.209Z,45.50
2023-02-21T03:32:41.100Z,45.70
2023-02-21T03:33:41.101Z,41.00
2023-02-21T03:34:41.090Z,42.30
2023-02-21T03:35:41.074Z,46.10
2023-02-21T03:36:41.067Z,44.40
2023-02-21T03:37:41.052Z,42.30
2023-02-21T03:38:41.039Z,38.60
2023-02-21T03:39:41.042Z,42.00
2023-02-21T03:40:41.016Z,40.70
2023-02-21T03:41:41.012Z,40.20
2023-02-21T03:42:40.998Z,41.20
2023-02-21T03:43:40.989Z,40.70
2023-02-21T03:44:40.983Z,39.90
2023-02-21T03:45:40.973Z,42.10
2023-02-21T03:46:41.183Z,43.50
2023-02-21T03:47:40.955Z,43.90
2023-02-21T03:48:40.936Z,47.40
2023-02-21T03:49:40.938Z,45.60
2023-02-21T03:50:40.917Z,44.80
2023-02-21T03:51:40.923Z,46.40
2023-02-21T03:52:40.888Z,46.70
2023-02-21T03:53:40.897Z,40.40
2023-02-21T03:54:40.886Z,40.90
2023-02-21T03:55:40.872Z,45.80
2023-02-21T03:56:42.422Z,47.80
2023-02-21T03:57:40.843Z,48.20
2023-02-21T03:58:40.825Z,44.70
2023-02-21T03:59:40.830Z,39.50
2023-02-21T04:00:40.854Z,43.30
2023-02-21T04:01:40.909Z,42.40
2023-02-21T04:02:40.790Z,41.90
2023-02-21T04:03:40.773Z,46.80
2023-02-21T04:04:40.774Z,44.00
2023-02-21T04:05:40.777Z,46.00
2023-02-21T04:06:40.746Z,45.00
2023-02-21T04:07:40.734Z,43.80
2023-02-21T04:08:40.723Z,48.30
2023-02-21T04:09:40.722Z,44.50
2023-02-21T04:10:51.304Z,44.40
2023-02-21T04:11:40.697Z,48.10
2023-02-21T04:12:40.695Z,50.00
2023-02-21T04:13:40.689Z,46.40
2023-02-21T04:14:40.668Z,44.80
2023-02-21T04:15:40.651Z,43.40
2023-02-21T04:16:40.633Z,46.10
2023-02-21T04:17:40.651Z,49.50
2023-02-21T04:18:40.613Z,46.30
2023-02-21T04:19:40.627Z,49.90
2023-02-21T04:20:40.595Z,50.50
2023-02-21T04:21:40.590Z,49.00
2023-02-21T04:22:40.589Z,48.40
2023-02-21T04:23:40.565Z,49.00
2023-02-21T04:24:40.561Z,46.50
2023-02-21T04:25:40.540Z,47.80
2023-02-21T04:26:40.526Z,46.30
2023-02-21T04:27:40.525Z,44.10
2023-02-21T04:28:40.513Z,49.20
2023-02-21T04:29:40.509Z,44.00
2023-02-21T04:30:40.550Z,50.00
2023-02-21T04:31:40.574Z,43.10
2023-02-21T04:32:40.510Z,46.50
2023-02-21T04:33:40.470Z,44.20
2023-02-21T04:34:40.458Z,41.30
2023-02-21T04:35:40.438Z,43.10
2023-02-21T04:36:40.432Z,45.80
2023-02-21T04:37:40.418Z,43.20
2023-02-21T04:38:40.423Z,46.10
2023-02-21T04:39:40.405Z,47.30
2023-02-21T04:40:40.376Z,41.20
2023-02-21T04:41:40.371Z,43.70
2023-02-21T04:42:40.373Z,43.00
2023-02-21T04:43:40.348Z,46.00
2023-02-21T04:44:42.772Z,43.90
2023-02-21T04:45:40.343Z,46.00
2023-02-21T04:46:40.316Z,47.50
2023-02-21T04:47:40.321Z,46.20
2023-02-21T04:48:40.293Z,45.40
2023-02-21T04:49:40.300Z,49.10
2023-02-21T04:50:40.272Z,45.10
2023-02-21T04:51:40.273Z,47.10
2023-02-21T04:52:40.263Z,50.00
2023-02-21T04:53:40.239Z,42.30
2023-02-21T04:54:40.246Z,41.00
2023-02-21T04:55:40.223Z,40.50
2023-02-21T04:56:40.270Z,44.50
2023-02-21T05:01:14.210Z,45.90
2023-02-21T05:02:14.711Z,42.40
2023-02-21T05:03:14.710Z,42.80
2023-02-21T05:04:14.766Z,40.70
2023-02-21T05:05:14.765Z,39.90
2023-02-21T05:06:14.665Z,44.90
2023-02-21T05:07:14.672Z,44.10
2023-02-21T05:08:14.660Z,43.40
2023-02-21T05:09:14.645Z,42.60
2023-02-21T05:10:14.643Z,45.60
2023-02-21T05:11:15.038Z,53.20
2023-02-21T05:12:14.605Z,45.50
2023-02-21T05:13:14.597Z,43.00
2023-02-21T05:14:14.592Z,44.50
2023-02-21T05:15:14.588Z,46.10
2023-02-21T05:16:14.577Z,50.00
2023-02-21T05:17:14.558Z,45.90
2023-02-21T05:18:14.550Z,48.60
2023-02-21T05:19:14.533Z,52.10
2023-02-21T05:20:14.540Z,51.50
2023-02-21T05:21:14.745Z,51.40
2023-02-21T05:22:14.493Z,51.10
2023-02-21T05:23:14.512Z,49.70
2023-02-21T05:24:14.470Z,55.70
2023-02-21T05:25:14.480Z,52.50
2023-02-21T05:26:14.461Z,51.30
2023-02-21T05:27:14.452Z,50.50
2023-02-21T05:28:14.432Z,45.40
2023-02-21T05:29:14.445Z,42.90
2023-02-21T05:30:14.452Z,44.60
2023-02-21T05:31:14.876Z,50.20
2023-02-21T05:32:14.435Z,52.00
2023-02-21T05:33:14.386Z,56.20
2023-02-21T05:34:14.363Z,49.90
2023-02-21T05:35:14.376Z,49.20
2023-02-21T05:36:14.342Z,46.50
2023-02-21T05:37:14.337Z,44.40
2023-02-21T05:38:14.334Z,50.10
2023-02-21T05:39:14.353Z,46.00
2023-02-21T05:40:14.311Z,51.70
2023-02-21T05:41:14.626Z,48.90
2023-02-21T05:42:14.296Z,47.50
2023-02-21T05:43:14.417Z,50.60
2023-02-21T05:44:14.272Z,50.90
2023-02-21T05:45:14.283Z,49.20
2023-02-21T05:46:14.390Z,50.00
2023-02-21T05:47:14.228Z,43.40
2023-02-21T05:48:14.212Z,43.90
2023-02-21T05:49:14.227Z,51.30
2023-02-21T05:50:14.205Z,48.80
2023-02-21T05:51:14.573Z,46.90
2023-02-21T05:52:14.168Z,43.20
2023-02-21T05:53:14.178Z,44.50
2023-02-21T05:54:14.151Z,56.40
2023-02-21T05:55:14.158Z,48.70
2023-02-21T05:56:14.138Z,47.80
2023-02-21T05:57:14.123Z,44.90
2023-02-21T05:58:14.130Z,50.20
2023-02-21T05:59:14.103Z,44.70
2023-02-21T06:00:14.092Z,43.50
2023-02-21T06:01:14.720Z,45.90
2023-02-21T06:02:14.057Z,45.70
2023-02-21T06:03:14.096Z,47.30
2023-02-21T06:04:14.025Z,47.10
2023-02-21T06:05:13.994Z,44.70
2023-02-21T06:06:14.068Z,44.20
2023-02-21T06:07:13.967Z,42.40
2023-02-21T06:08:14.045Z,46.00
2023-02-21T06:09:14.005Z,47.20
2023-02-21T06:10:13.939Z,45.00
2023-02-21T06:11:14.322Z,53.80
2023-02-21T06:12:13.919Z,49.20
2023-02-21T06:13:13.884Z,50.20
2023-02-21T06:14:13.869Z,47.90
2023-02-21T06:15:13.905Z,48.10
2023-02-21T06:16:13.872Z,50.00
2023-02-21T06:17:13.846Z,48.70
2023-02-21T06:18:13.830Z,48.90
2023-02-21T06:19:13.887Z,44.10
2023-02-21T06:20:13.830Z,47.30
2023-02-21T06:21:14.150Z,45.60
2023-02-21T06:22:13.784Z,48.20
2023-02-21T06:23:13.803Z,45.90
2023-02-21T06:24:13.769Z,46.30
2023-02-21T06:25:13.772Z,42.90
2023-02-21T06:26:13.736Z,43.70
2023-02-21T06:27:13.730Z,45.00
2023-02-21T06:28:13.720Z,47.80
2023-02-21T06:29:13.737Z,49.30
2023-02-21T06:30:13.760Z,47.20
2023-02-21T06:31:14.085Z,46.50
2023-02-21T06:32:13.717Z,44.50
2023-02-21T06:33:13.676Z,49.30
2023-02-21T06:34:13.651Z,47.50
2023-02-21T06:35:13.657Z,52.00
2023-02-21T06:36:13.647Z,50.40
2023-02-21T06:37:13.629Z,45.00
2023-02-21T06:38:13.613Z,45.70
2023-02-21T06:39:13.626Z,49.20
2023-02-21T06:40:13.606Z,45.30
2023-02-21T06:41:13.916Z,48.30
2023-02-21T06:42:13.590Z,46.60
2023-02-21T06:43:13.584Z,46.20
2023-02-21T06:44:13.549Z,49.80
2023-02-21T06:45:13.560Z,47.30
2023-02-21T06:46:13.539Z,46.10
2023-02-21T06:47:13.530Z,47.40
2023-02-21T06:48:13.513Z,45.70
2023-02-21T06:49:13.503Z,48.60
2023-02-21T06:50:13.496Z,51.50
2023-02-21T06:51:13.772Z,50.20
2023-02-21T06:52:13.459Z,49.80
2023-02-21T06:53:13.464Z,51.60
2023-02-21T06:54:13.442Z,51.70
2023-02-21T06:55:13.450Z,50.10
2023-02-21T06:56:13.426Z,52.60
2023-02-21T06:57:13.412Z,46.00
2023-02-21T06:58:13.403Z,46.00
2023-02-21T06:59:13.399Z,48.80
2023-02-21T07:00:13.399Z,50.00
2023-02-21T07:01:13.713Z,45.60
2023-02-21T07:02:13.364Z,46.80
2023-02-21T07:03:13.360Z,48.10
2023-02-21T07:04:13.348Z,46.70
2023-02-21T07:05:13.343Z,49.60
2023-02-21T07:06:13.317Z,47.80
2023-02-21T07:07:13.310Z,51.80
2023-02-21T07:08:13.297Z,45.90
2023-02-21T07:09:13.280Z,46.60
2023-02-21T07:10:13.281Z,45.40
2023-02-21T07:11:13.701Z,49.50
2023-02-21T07:12:13.250Z,49.00
2023-02-21T07:13:13.230Z,46.40
2023-02-21T07:14:13.248Z,48.10
2023-02-21T07:15:13.221Z,51.10
2023-02-21T07:16:13.250Z,50.00
2023-02-21T07:17:13.189Z,44.80
2023-02-21T07:18:13.187Z,45.30
2023-02-21T07:19:13.171Z,47.90
2023-02-21T07:20:13.177Z,48.70
2023-02-21T07:21:13.593Z,47.60
2023-02-21T07:22:13.139Z,47.70
2023-02-21T07:23:13.126Z,45.50
2023-02-21T07:24:13.129Z,48.90
2023-02-21T07:25:13.114Z,48.50
2023-02-21T07:26:13.102Z,50.40
2023-02-21T07:27:13.085Z,46.60
2023-02-21T07:28:13.078Z,47.70
2023-02-21T07:29:13.132Z,46.70
2023-02-21T07:30:13.076Z,48.20
2023-02-21T07:31:13.532Z,45.70
2023-02-21T07:32:13.056Z,43.90
2023-02-21T07:33:13.022Z,45.40
2023-02-21T07:34:13.016Z,44.00
2023-02-21T07:35:13.381Z,43.10
2023-02-21T07:36:12.994Z,43.00
2023-02-21T07:37:14.261Z,46.80
2023-02-21T07:38:13.131Z,49.70
2023-02-21T07:39:12.979Z,48.80
2023-02-21T07:40:12.962Z,47.10
2023-02-21T07:41:13.076Z,46.40
2023-02-21T07:42:13.479Z,46.10
2023-02-21T07:43:12.910Z,48.10
2023-02-21T07:44:12.897Z,48.00
2023-02-21T07:45:12.893Z,52.60
2023-02-21T07:46:12.888Z,50.30
2023-02-21T07:47:12.871Z,47.30
2023-02-21T07:48:12.859Z,47.20
2023-02-21T07:49:12.867Z,48.60
2023-02-21T07:50:12.860Z,57.10
2023-02-21T07:51:13.004Z,51.20
2023-02-21T07:52:12.816Z,51.60
2023-02-21T07:53:12.800Z,52.70
2023-02-21T07:54:12.793Z,46.70
2023-02-21T07:55:12.800Z,47.10
2023-02-21T07:56:12.776Z,50.50
2023-02-21T07:57:12.764Z,50.40
2023-02-21T07:58:12.777Z,48.70
2023-02-21T07:59:12.738Z,47.80
2023-02-21T08:00:12.755Z,48.60
2023-02-21T08:01:12.914Z,48.20
2023-02-21T08:02:12.707Z,46.00
2023-02-21T08:03:12.694Z,48.20
2023-02-21T08:04:12.682Z,47.70
2023-02-21T08:05:12.698Z,45.20
2023-02-21T08:06:12.691Z,47.80
2023-02-21T08:07:12.646Z,45.50
2023-02-21T08:08:12.672Z,45.10
2023-02-21T08:09:12.632Z,41.10
2023-02-21T08:10:12.636Z,42.20
2023-02-21T08:11:12.804Z,47.60
2023-02-21T08:12:12.592Z,45.90
2023-02-21T08:13:12.691Z,44.50
2023-02-21T08:14:12.585Z,41.20
2023-02-21T08:15:12.573Z,42.60
2023-02-21T08:16:12.616Z,37.80
2023-02-21T08:17:12.539Z,38.20
2023-02-21T08:18:12.539Z,39.20
2023-02-21T08:19:12.516Z,36.00
2023-02-21T08:20:12.554Z,39.40
2023-02-21T08:21:12.822Z,37.50
2023-02-21T08:22:12.494Z,36.10
2023-02-21T08:23:12.475Z,36.30
2023-02-21T08:24:12.485Z,37.90
2023-02-21T08:25:12.466Z,33.60
2023-02-21T08:26:12.450Z,36.40
2023-02-21T08:27:12.426Z,36.00
2023-02-21T08:28:12.416Z,35.00
2023-02-21T08:29:12.415Z,35.30
2023-02-21T08:30:12.460Z,35.30
2023-02-21T08:31:12.670Z,34.80
2023-02-21T08:32:12.411Z,35.60
2023-02-21T08:33:12.378Z,35.60
2023-02-21T08:34:12.373Z,35.60
2023-02-21T08:35:12.346Z,33.30
2023-02-21T08:36:12.335Z,34.80
2023-02-21T08:37:12.312Z,35.00
2023-02-21T08:38:12.313Z,39.50
2023-02-21T08:39:12.291Z,34.40
2023-02-21T08:40:12.320Z,34.20
2023-02-21T08:41:12.607Z,34.90
2023-02-21T08:42:12.261Z,37.90
2023-02-21T08:43:12.254Z,36.10
2023-02-21T08:44:12.260Z,40.40
2023-02-21T08:45:12.256Z,38.00
2023-02-21T08:46:12.237Z,38.10
2023-02-21T08:47:12.208Z,40.40
2023-02-21T08:48:12.202Z,40.00
2023-02-21T08:49:12.186Z,42.30
2023-02-21T08:50:12.193Z,47.70
2023-02-21T08:51:12.168Z,50.80
2023-02-21T08:52:12.155Z,48.10
2023-02-21T08:53:14.954Z,48.40
2023-02-21T08:54:12.150Z,53.30
2023-02-21T08:55:12.141Z,55.40
2023-02-21T08:56:12.112Z,52.40
2023-02-21T08:57:12.097Z,51.60
2023-02-21T08:58:12.100Z,48.50
2023-02-21T08:59:12.103Z,56.50
2023-02-21T09:00:12.083Z,52.40
2023-02-21T09:01:12.170Z,61.50
2023-02-21T09:02:12.116Z,55.30
2023-02-21T09:03:12.038Z,52.10
2023-02-21T09:04:12.031Z,55.70
2023-02-21T09:05:12.027Z,55.50
2023-02-21T09:06:12.014Z,61.00
2023-02-21T09:07:11.998Z,63.70
2023-02-21T09:08:11.984Z,61.40
2023-02-21T09:09:11.971Z,58.30
2023-02-21T09:10:11.974Z,63.30
2023-02-21T09:11:11.978Z,55.40
2023-02-21T09:12:11.941Z,59.80
2023-02-21T09:13:11.931Z,50.20
2023-02-21T09:14:11.918Z,57.10
2023-02-21T09:15:11.930Z,57.10
2023-02-21T09:16:11.935Z,56.50
2023-02-21T09:17:11.883Z,56.70
2023-02-21T09:18:11.890Z,53.40
2023-02-21T09:19:11.862Z,51.80
2023-02-21T09:20:11.877Z,54.50
2023-02-21T09:21:11.965Z,57.70
2023-02-21T09:22:11.838Z,57.00
2023-02-21T09:23:11.828Z,68.90
2023-02-21T09:24:11.820Z,62.90
2023-02-21T09:25:11.804Z,61.90
2023-02-21T09:26:11.798Z,69.30
2023-02-21T09:27:11.776Z,73.10
2023-02-21T09:28:11.777Z,68.60
2023-02-21T09:29:11.749Z,75.20
2023-02-21T09:30:11.798Z,75.30
2023-02-21T09:31:11.736Z,76.00
2023-02-21T09:32:11.758Z,73.40
2023-02-21T09:33:11.715Z,80.20
2023-02-21T09:34:11.704Z,86.30
2023-02-21T09:35:11.697Z,73.60
2023-02-21T09:36:11.681Z,71.70
2023-02-21T09:37:11.670Z,73.30
2023-02-21T09:38:11.670Z,75.50
2023-02-21T09:39:11.643Z,70.90
2023-02-21T09:40:11.648Z,67.00
2023-02-21T09:41:11.621Z,68.40
2023-02-21T09:42:11.628Z,82.00
2023-02-21T09:43:11.600Z,83.90
2023-02-21T09:44:11.596Z,79.70
2023-02-21T09:45:11.604Z,83.10
2023-02-21T09:46:11.649Z,87.70
2023-02-21T09:47:11.556Z,98.80
2023-02-21T09:48:11.583Z,104.00
2023-02-21T09:49:11.532Z,99.40
2023-02-21T09:50:13.184Z,105.80
2023-02-21T09:51:11.513Z,101.70
2023-02-21T09:52:11.512Z,105.80
2023-02-21T09:53:11.522Z,107.60
2023-02-21T09:54:11.482Z,104.00
2023-02-21T09:55:11.476Z,111.30
2023-02-21T09:56:11.470Z,103.30
2023-02-21T09:57:11.443Z,101.10
2023-02-21T09:58:11.444Z,99.80
2023-02-21T09:59:11.428Z,106.60
2023-02-21T10:00:11.427Z,111.20
2023-02-21T10:01:11.493Z,104.70
2023-02-21T10:02:11.394Z,102.20
2023-02-21T10:03:11.381Z,106.30
2023-02-21T10:04:11.379Z,102.60
2023-02-21T10:05:11.365Z,100.10
2023-02-21T10:06:11.349Z,97.40
2023-02-21T10:07:11.334Z,100.90
2023-02-21T10:08:11.326Z,101.80
2023-02-21T10:09:11.309Z,94.30
2023-02-21T10:10:11.314Z,93.60
2023-02-21T10:11:11.290Z,98.20
2023-02-21T10:12:11.283Z,91.50
2023-02-21T10:13:11.266Z,92.30
2023-02-21T10:14:11.260Z,94.00
2023-02-21T10:15:11.256Z,96.40
2023-02-21T10:16:11.333Z,94.10
2023-02-21T10:17:11.228Z,88.70
2023-02-21T10:18:11.224Z,82.80
2023-02-21T10:19:11.203Z,79.60
2023-02-21T10:20:11.205Z,83.40
2023-02-21T10:21:11.182Z,91.70
2023-02-21T10:22:11.173Z,87.50
2023-02-21T10:23:11.163Z,91.50
2023-02-21T10:24:11.156Z,93.30
2023-02-21T10:25:11.146Z,91.00
2023-02-21T10:26:11.133Z,86.30
2023-02-21T10:27:11.116Z,83.00
2023-02-21T10:28:11.117Z,80.10
2023-02-21T10:29:11.100Z,80.90
2023-02-21T10:30:11.198Z,83.40
2023-02-21T10:31:11.118Z,90.10
2023-02-21T10:32:11.181Z,85.80
2023-02-21T10:33:11.054Z,80.20
2023-02-21T10:34:11.044Z,80.60
2023-02-21T10:35:11.038Z,86.70
2023-02-21T10:36:11.019Z,76.90
2023-02-21T10:37:11.046Z,76.00
2023-02-21T10:38:10.995Z,78.80
2023-02-21T10:39:10.996Z,79.00
2023-02-21T10:40:10.986Z,78.90
2023-02-21T10:41:10.964Z,86.00
2023-02-21T10:42:10.953Z,77.30
2023-02-21T10:43:10.942Z,79.10
2023-02-21T10:44:10.936Z,81.30
2023-02-21T10:45:10.932Z,80.10
2023-02-21T10:46:10.951Z,79.60
2023-02-21T10:47:10.892Z,79.70
2023-02-21T10:48:10.886Z,81.80
2023-02-21T10:49:10.876Z,75.60
2023-02-21T10:50:10.873Z,79.30
2023-02-21T10:51:10.878Z,75.50
2023-02-21T10:52:10.846Z,70.50
2023-02-21T10:53:10.883Z,81.40
2023-02-21T10:54:10.826Z,78.00
2023-02-21T10:55:23.056Z,77.60
2023-02-21T10:56:10.814Z,76.70
2023-02-21T10:57:10.802Z,78.50
2023-02-21T10:58:10.789Z,79.60
2023-02-21T10:59:10.765Z,78.60
2023-02-21T11:00:10.789Z,77.30
2023-02-21T11:01:10.775Z,75.80
2023-02-21T11:02:10.760Z,78.80
2023-02-21T11:03:10.753Z,81.80
2023-02-21T11:04:10.732Z,80.50
2023-02-21T11:05:10.724Z,74.70
2023-02-21T11:06:10.707Z,79.90
2023-02-21T11:07:10.690Z,74.10
2023-02-21T11:08:10.670Z,77.70
2023-02-21T11:09:10.664Z,80.40
2023-02-21T11:10:10.664Z,75.40
2023-02-21T11:11:10.641Z,76.00
2023-02-21T11:12:10.623Z,77.10
2023-02-21T11:13:10.630Z,76.60
2023-02-21T11:14:10.598Z,73.00
2023-02-21T11:15:10.604Z,74.10
2023-02-21T11:16:10.629Z,73.90
2023-02-21T11:17:12.545Z,69.60
2023-02-21T11:18:10.557Z,71.00
2023-02-21T11:19:10.553Z,66.60
2023-02-21T11:20:10.550Z,72.50
2023-02-21T11:21:10.538Z,73.10
2023-02-21T11:22:10.522Z,65.80
2023-02-21T11:23:10.516Z,64.20
2023-02-21T11:24:10.498Z,67.10
2023-02-21T11:25:10.517Z,65.90
2023-02-21T11:26:10.474Z,67.10
2023-02-21T11:27:10.476Z,67.80
2023-02-21T11:28:10.466Z,69.50
2023-02-21T11:29:10.441Z,70.20
2023-02-21T11:30:10.480Z,73.30
2023-02-21T11:31:10.495Z,72.80
2023-02-21T11:32:10.423Z,68.40
2023-02-21T11:33:10.407Z,68.50
2023-02-21T11:34:10.388Z,73.60
2023-02-21T11:35:10.396Z,69.20
2023-02-21T11:36:10.369Z,72.10
2023-02-21T11:37:10.374Z,70.80
2023-02-21T11:38:10.353Z,68.80
2023-02-21T11:39:10.342Z,67.00
2023-02-21T11:40:10.335Z,68.50
2023-02-21T11:41:10.318Z,70.40
2023-02-21T11:42:10.310Z,67.30
2023-02-21T11:43:10.296Z,66.00
2023-02-21T11:44:10.282Z,62.10
2023-02-21T11:45:10.290Z,65.00
2023-02-21T11:46:10.381Z,65.60
2023-02-21T11:47:10.255Z,63.60
2023-02-21T11:48:10.252Z,62.50
2023-02-21T11:49:10.231Z,64.10
2023-02-21T11:50:10.230Z,62.50
2023-02-21T11:51:10.208Z,64.40
2023-02-21T11:52:10.209Z,62.80
2023-02-21T11:53:10.198Z,55.80
2023-02-21T11:54:10.172Z,51.80
2023-02-21T11:55:10.176Z,57.20
2023-02-21T11:56:10.160Z,53.50
2023-02-21T11:57:10.177Z,50.90
2023-02-21T11:58:10.130Z,51.00
2023-02-21T11:59:10.173Z,55.60
2023-02-21T12:00:10.137Z,54.20
2023-02-21T12:01:10.111Z,49.00
2023-02-21T12:02:10.106Z,46.40
2023-02-21T12:03:10.092Z,50.60
2023-02-21T12:04:10.094Z,46.20
2023-02-21T12:05:10.069Z,51.70
2023-02-21T12:06:10.111Z,43.10
2023-02-21T12:07:10.031Z,45.60
2023-02-21T12:08:10.022Z,47.70
2023-02-21T12:09:10.016Z,47.00
2023-02-21T12:10:10.040Z,43.70
2023-02-21T12:11:09.996Z,46.10
2023-02-21T12:12:09.977Z,43.60
2023-02-21T12:13:09.976Z,46.10
2023-02-21T12:14:09.961Z,44.60
2023-02-21T12:15:09.965Z,44.30
2023-02-21T12:16:09.997Z,46.40
2023-02-21T12:17:09.967Z,46.80
2023-02-21T12:18:10.003Z,43.30
2023-02-21T12:19:09.955Z,46.20
2023-02-21T12:20:09.933Z,47.20
2023-02-21T12:21:09.898Z,41.30
2023-02-21T12:22:09.895Z,42.70
2023-02-21T12:23:09.885Z,45.00
2023-02-21T12:24:09.875Z,43.30
2023-02-21T12:25:09.863Z,45.60
2023-02-21T12:26:09.847Z,44.60
2023-02-21T12:27:09.850Z,72.10
2023-02-21T12:28:10.397Z,57.50
2023-02-21T12:29:09.812Z,47.50
2023-02-21T12:30:09.835Z,42.20
2023-02-21T12:31:09.819Z,43.00
2023-02-21T12:32:09.797Z,42.80
2023-02-21T12:33:09.775Z,42.50
2023-02-21T12:34:09.756Z,42.00
2023-02-21T12:35:09.776Z,43.30
2023-02-21T12:36:09.738Z,41.00
2023-02-21T12:37:09.732Z,42.30
2023-02-21T12:38:09.721Z,41.20
2023-02-21T12:39:09.714Z,39.40
2023-02-21T12:40:09.730Z,44.30
2023-02-21T12:41:09.697Z,40.20
2023-02-21T12:42:09.683Z,40.80
2023-02-21T12:43:09.675Z,41.90
2023-02-21T12:44:09.667Z,37.90
2023-02-21T12:45:09.656Z,38.30
2023-02-21T12:46:09.728Z,40.60
2023-02-21T12:47:09.632Z,39.00
2023-02-21T12:48:09.620Z,37.50
2023-02-21T12:49:09.618Z,40.70
2023-02-21T12:50:09.603Z,37.80
2023-02-21T12:51:09.607Z,38.50
2023-02-21T12:52:09.580Z,37.00
2023-02-21T12:53:09.576Z,38.20
2023-02-21T12:54:09.557Z,37.60
2023-02-21T12:55:09.549Z,35.40
2023-02-21T12:56:09.546Z,36.50
2023-02-21T12:57:09.541Z,36.70
2023-02-21T12:58:09.525Z,33.10